This is the latest recevied weather packets stored in our database for station/object EA1GGY-1. If no packets are shown the sender has not sent any weather packets the latest 10 day(s).
| Time | Temp. | Humidity | Pressure | Rain* | Wind** | Luminosity | Snow |
|---|---|---|---|---|---|---|---|
| 1777876727 | 7.22° C | 78% | 1008.5 hPa | - | - | - | - |
| 1777876126 | 7.22° C | 78% | 1008.4 hPa | - | - | - | - |
| 1777875525 | 7.22° C | 79% | 1008.3 hPa | - | - | - | - |
| 1777874924 | 6.67° C | 80% | 1008.3 hPa | - | - | - | - |
| 1777874325 | 6.67° C | 77% | 1008.2 hPa | - | - | - | - |
| 1777873723 | 7.22° C | 76% | 1008.1 hPa | - | - | - | - |
| 1777873122 | 6.67° C | 79% | 1008.1 hPa | - | - | - | - |
| 1777872522 | 6.11° C | 79% | 1008.1 hPa | - | - | - | - |
| 1777871921 | 6.67° C | 77% | 1008 hPa | - | - | - | - |
| 1777871320 | 6.11° C | 78% | 1008 hPa | - | - | - | - |
| 1777870719 | 5.56° C | 77% | 1008 hPa | - | - | - | - |
| 1777870118 | 6.11° C | 77% | 1008.1 hPa | - | - | - | - |
| 1777869518 | 6.67° C | 75% | 1008 hPa | - | - | - | - |
| 1777868918 | 6.11° C | 76% | 1008.1 hPa | - | - | - | - |
| 1777868316 | 5.56° C | 77% | 1008.2 hPa | - | - | - | - |
| 1777867715 | 6.11° C | 76% | 1008.2 hPa | - | - | - | - |
| 1777867114 | 5.56° C | 76% | 1008.3 hPa | - | - | - | - |
| 1777866513 | 5° C | 78% | 1008.3 hPa | - | - | - | - |
| 1777865912 | 5.56° C | 77% | 1008.3 hPa | - | - | - | - |
| 1777865312 | 6.11° C | 76% | 1008.2 hPa | - | - | - | - |
| 1777864711 | 6.11° C | 77% | 1008.3 hPa | - | - | - | - |
| 1777864110 | 5.56° C | 77% | 1008.4 hPa | - | - | - | - |
| 1777863509 | 6.67° C | 75% | 1008.3 hPa | - | - | - | - |
| 1777862909 | 6.11° C | 75% | 1008.4 hPa | - | - | - | - |
| 1777862309 | 5.56° C | 77% | 1008.4 hPa | - | - | - | - |
* Rain since midnight (hover to see other rain measurements)
** Current wind speed in m/s (hover to see current wind gust speed)